createdAt,value
2018-01-18T00:01:16.374Z,2.85
2018-01-18T00:03:44.310Z,2.80
2018-01-18T00:06:12.278Z,2.95
2018-01-18T00:08:40.250Z,2.88
2018-01-18T00:11:08.161Z,2.72
2018-01-18T00:13:36.175Z,2.84
2018-01-18T00:16:04.188Z,2.76
2018-01-18T00:18:32.126Z,2.89
2018-01-18T00:21:00.062Z,2.74
2018-01-18T00:23:28.094Z,2.95
2018-01-18T00:25:57.321Z,2.90
2018-01-18T00:28:25.213Z,2.79
2018-01-18T00:30:53.133Z,2.88
2018-01-18T00:33:21.054Z,2.85
2018-01-18T00:35:49.030Z,2.94
2018-01-18T00:38:17.426Z,2.94
2018-01-18T00:40:45.345Z,2.85
2018-01-18T00:43:13.285Z,3.02
2018-01-18T00:45:41.313Z,2.99
2018-01-18T00:48:09.257Z,3.09
2018-01-18T00:50:37.168Z,2.93
2018-01-18T00:53:05.290Z,2.95
2018-01-18T00:55:33.238Z,3.09
2018-01-18T00:58:01.147Z,2.99
2018-01-18T01:00:29.094Z,2.88
2018-01-18T01:02:57.011Z,3.04
2018-01-18T01:05:24.961Z,3.02
2018-01-18T01:07:52.965Z,2.99
2018-01-18T01:10:21.637Z,2.98
2018-01-18T01:12:49.555Z,2.79
2018-01-18T01:15:17.471Z,3.02
2018-01-18T01:17:45.437Z,2.86
2018-01-18T01:20:13.362Z,2.81
2018-01-18T01:22:41.329Z,2.86
2018-01-18T01:25:09.274Z,2.72
2018-01-18T01:27:37.244Z,2.79
2018-01-18T01:30:05.154Z,2.88
2018-01-18T01:32:33.080Z,2.82
2018-01-18T01:35:00.993Z,2.65
2018-01-18T01:37:28.926Z,2.75
2018-01-18T01:39:57.032Z,2.86
2018-01-18T01:42:24.968Z,2.93
2018-01-18T01:44:52.873Z,2.83
2018-01-18T01:47:20.797Z,3.04
2018-01-18T01:49:48.717Z,2.85
2018-01-18T01:52:16.748Z,2.76
2018-01-18T01:54:44.673Z,2.88
2018-01-18T01:57:12.622Z,2.97
2018-01-18T01:59:40.603Z,2.95
2018-01-18T02:02:08.679Z,2.83
2018-01-18T02:04:36.630Z,2.91
2018-01-18T02:07:04.529Z,3.04
2018-01-18T02:09:32.481Z,3.00
2018-01-18T02:12:00.458Z,3.00
2018-01-18T02:14:28.508Z,3.10
2018-01-18T02:16:56.425Z,3.13
2018-01-18T02:19:24.334Z,3.04
2018-01-18T02:21:52.256Z,3.10
2018-01-18T02:24:20.170Z,3.09
2018-01-18T02:26:48.112Z,3.15
2018-01-18T02:29:16.051Z,2.89
2018-01-18T02:31:43.981Z,3.02
2018-01-18T02:34:11.981Z,3.08
2018-01-18T02:36:40.649Z,2.96
2018-01-18T02:39:08.562Z,3.12
2018-01-18T02:41:36.506Z,3.12
2018-01-18T02:44:04.525Z,3.06
2018-01-18T02:46:32.445Z,3.04
2018-01-18T02:49:00.414Z,3.01
2018-01-18T02:51:28.436Z,3.11
2018-01-18T02:53:56.364Z,3.13
2018-01-18T02:56:24.291Z,3.18
2018-01-18T02:58:52.225Z,3.16
2018-01-18T03:01:20.154Z,3.08
2018-01-18T03:03:48.064Z,3.04
2018-01-18T03:06:16.041Z,3.03
2018-01-18T03:08:43.949Z,3.06
2018-01-18T03:11:11.871Z,3.12
2018-01-18T03:13:39.809Z,3.12
2018-01-18T03:16:07.741Z,3.05
2018-01-18T03:18:35.716Z,3.02
2018-01-18T03:21:03.652Z,3.16
2018-01-18T03:23:31.558Z,3.02
2018-01-18T03:25:59.496Z,3.10
2018-01-18T03:28:27.429Z,3.08
2018-01-18T03:30:56.202Z,3.14
2018-01-18T03:33:24.086Z,3.03
2018-01-18T03:35:52.017Z,3.06
2018-01-18T03:38:19.941Z,3.11
2018-01-18T03:40:47.900Z,3.11
2018-01-18T03:43:15.829Z,3.12
2018-01-18T03:45:43.801Z,3.08
2018-01-18T03:48:11.815Z,2.90
2018-01-18T03:50:39.734Z,3.03
2018-01-18T03:53:07.653Z,3.04
2018-01-18T03:55:35.603Z,3.24
2018-01-18T03:58:03.519Z,3.06
2018-01-18T04:00:31.467Z,3.19
2018-01-18T04:02:59.381Z,3.26
2018-01-18T04:05:27.308Z,3.25
2018-01-18T04:07:55.230Z,3.04
2018-01-18T04:10:23.157Z,3.06
2018-01-18T04:12:51.598Z,3.08
2018-01-18T04:15:19.665Z,3.08
2018-01-18T04:17:47.589Z,3.19
2018-01-18T04:20:15.501Z,3.13
2018-01-18T04:22:43.422Z,3.03
2018-01-18T04:25:12.278Z,3.06
2018-01-18T04:27:40.205Z,3.16
2018-01-18T04:30:08.140Z,2.98
2018-01-18T04:32:36.432Z,2.98
2018-01-18T04:35:04.368Z,3.05
2018-01-18T04:37:32.316Z,3.15
2018-01-18T04:40:00.396Z,3.12
2018-01-18T04:42:28.464Z,3.12
2018-01-18T04:44:56.380Z,3.19
2018-01-18T04:47:24.376Z,3.29
2018-01-18T04:49:52.291Z,3.08
2018-01-18T04:52:20.201Z,3.04
2018-01-18T04:54:48.112Z,3.21
2018-01-18T04:57:16.138Z,3.04
2018-01-18T04:59:44.084Z,3.06
2018-01-18T05:02:12.035Z,3.20
2018-01-18T05:04:39.957Z,3.12
2018-01-18T05:07:07.904Z,3.17
2018-01-18T05:09:35.842Z,3.35
2018-01-18T05:12:03.777Z,3.15
2018-01-18T05:14:31.713Z,3.16
2018-01-18T05:16:59.630Z,3.19
2018-01-18T05:19:27.574Z,3.18
2018-01-18T05:21:55.666Z,3.10
2018-01-18T05:24:23.570Z,3.21
2018-01-18T05:26:51.580Z,3.31
2018-01-18T05:29:19.510Z,3.32
2018-01-18T05:31:47.446Z,3.49
2018-01-18T05:34:15.373Z,3.41
2018-01-18T05:36:43.289Z,3.31
2018-01-18T05:39:11.277Z,3.42
2018-01-18T05:41:39.219Z,3.41
2018-01-18T05:44:07.253Z,3.38
2018-01-18T05:46:35.170Z,3.35
2018-01-18T05:49:03.104Z,3.28
2018-01-18T05:51:31.026Z,3.29
2018-01-18T05:53:58.961Z,3.12
2018-01-18T05:56:27.150Z,3.17
2018-01-18T05:58:55.069Z,3.18
2018-01-18T06:01:23.115Z,3.12
2018-01-18T06:03:51.043Z,3.30
2018-01-18T06:06:19.330Z,3.34
2018-01-18T06:08:48.130Z,3.11
2018-01-18T06:11:16.321Z,3.12
2018-01-18T06:13:44.837Z,3.11
2018-01-18T06:16:13.816Z,3.21
2018-01-18T06:18:41.822Z,3.23
2018-01-18T06:21:09.794Z,3.17
2018-01-18T06:23:37.772Z,3.17
2018-01-18T06:26:05.852Z,3.15
2018-01-18T06:28:33.863Z,3.14
2018-01-18T06:31:01.925Z,3.17
2018-01-18T06:33:29.886Z,3.15
2018-01-18T06:35:57.870Z,3.10
2018-01-18T06:38:26.086Z,3.04
2018-01-18T06:40:54.283Z,3.11
2018-01-18T06:43:22.292Z,3.05
2018-01-18T06:45:51.142Z,3.00
2018-01-18T06:48:19.127Z,3.09
2018-01-18T06:50:47.098Z,3.10
2018-01-18T06:53:16.007Z,3.03
2018-01-18T06:55:45.256Z,2.87
2018-01-18T06:58:13.183Z,3.03
2018-01-18T07:00:41.228Z,3.09
2018-01-18T07:03:10.043Z,2.96
2018-01-18T07:05:38.095Z,2.95
2018-01-18T07:08:06.164Z,3.01
2018-01-18T07:10:35.073Z,2.98
2018-01-18T07:13:03.095Z,2.95
2018-01-18T07:15:31.056Z,2.89
2018-01-18T07:17:59.075Z,2.83
2018-01-18T07:20:28.061Z,2.88
2018-01-18T07:22:56.213Z,2.79
2018-01-18T07:25:24.196Z,2.89
2018-01-18T07:27:52.273Z,2.87
2018-01-18T07:30:20.203Z,2.75
2018-01-18T07:32:48.133Z,2.82
2018-01-18T07:35:16.235Z,2.86
2018-01-18T07:37:44.169Z,2.75
2018-01-18T07:40:12.139Z,2.78
2018-01-18T07:42:40.203Z,2.86
2018-01-18T07:45:08.473Z,2.81
2018-01-18T07:47:37.478Z,2.73
2018-01-18T07:50:05.676Z,2.91
2018-01-18T07:52:33.717Z,3.04
2018-01-18T07:55:01.873Z,2.97
2018-01-18T07:57:29.965Z,2.91
2018-01-18T07:59:58.822Z,2.78
2018-01-18T08:02:26.902Z,2.65
2018-01-18T08:04:55.053Z,2.74
2018-01-18T08:07:23.147Z,2.75
2018-01-18T08:09:51.264Z,2.76
2018-01-18T08:12:19.223Z,2.68
2018-01-18T08:14:47.392Z,2.59
2018-01-18T08:17:15.612Z,2.72
2018-01-18T08:19:43.565Z,2.71
2018-01-18T08:22:11.552Z,2.64
2018-01-18T08:24:39.529Z,2.81
2018-01-18T08:27:08.128Z,2.78
2018-01-18T08:29:36.114Z,2.70
2018-01-18T08:32:04.106Z,2.79
2018-01-18T08:34:32.076Z,2.64
2018-01-18T08:37:00.017Z,2.66
2018-01-18T08:39:28.161Z,2.69
2018-01-18T08:41:56.091Z,2.53
2018-01-18T08:44:24.111Z,2.65
2018-01-18T08:46:52.168Z,2.60
2018-01-18T08:49:20.155Z,2.64
2018-01-18T08:51:48.197Z,2.56
2018-01-18T08:54:16.226Z,2.62
2018-01-18T08:56:44.177Z,2.53
2018-01-18T08:59:12.123Z,2.67
2018-01-18T09:01:40.069Z,2.69
2018-01-18T09:04:08.123Z,2.67
2018-01-18T09:06:36.180Z,2.67
2018-01-18T09:09:04.174Z,2.65
2018-01-18T09:11:32.097Z,2.61
2018-01-18T09:14:00.171Z,2.59
2018-01-18T09:16:28.166Z,2.66
2018-01-18T09:18:56.258Z,2.65
2018-01-18T09:21:24.223Z,2.57
2018-01-18T09:23:52.232Z,2.68
2018-01-18T09:26:20.266Z,2.61
2018-01-18T09:28:48.260Z,2.58
2018-01-18T09:31:16.894Z,2.56
2018-01-18T09:33:44.922Z,2.50
2018-01-18T09:36:13.014Z,2.42
2018-01-18T09:38:41.068Z,2.38
2018-01-18T09:41:09.050Z,2.41
2018-01-18T09:43:37.098Z,2.35
2018-01-18T09:46:05.042Z,2.32
2018-01-18T09:48:33.252Z,2.35
2018-01-18T09:51:01.245Z,2.34
2018-01-18T09:53:30.199Z,2.34
2018-01-18T09:55:58.279Z,2.24
2018-01-18T09:58:26.328Z,2.22
2018-01-18T10:00:54.401Z,2.21
2018-01-18T10:03:23.828Z,2.19
2018-01-18T10:05:51.824Z,2.24
2018-01-18T10:08:20.000Z,2.25
2018-01-18T10:10:48.081Z,2.23
2018-01-18T10:13:16.117Z,2.23
2018-01-18T10:15:44.434Z,2.24
2018-01-18T10:18:12.391Z,2.29
2018-01-18T10:20:40.892Z,2.30
2018-01-18T10:23:08.834Z,2.29
2018-01-18T10:25:37.794Z,2.29
2018-01-18T10:28:05.864Z,2.35
2018-01-18T10:30:33.989Z,2.29
2018-01-18T10:33:02.226Z,2.23
2018-01-18T10:35:30.251Z,2.22
2018-01-18T10:37:58.350Z,2.12
2018-01-18T10:40:26.444Z,2.16
2018-01-18T10:42:54.468Z,2.19
2018-01-18T10:45:22.473Z,2.00
2018-01-18T10:47:50.446Z,1.83
2018-01-18T10:50:18.518Z,1.90
2018-01-18T10:52:46.738Z,1.82
2018-01-18T10:55:14.977Z,1.80
2018-01-18T10:57:43.004Z,1.78
2018-01-18T11:00:11.056Z,1.65
2018-01-18T11:02:39.082Z,1.58
2018-01-18T11:05:07.780Z,1.49
2018-01-18T11:07:35.707Z,1.60
2018-01-18T11:10:04.097Z,1.65
2018-01-18T11:12:33.005Z,1.73
2018-01-18T11:15:00.973Z,1.68
2018-01-18T11:17:28.918Z,1.70
2018-01-18T11:19:56.939Z,1.66
2018-01-18T11:22:24.857Z,1.61
2018-01-18T11:24:53.043Z,1.63
2018-01-18T11:27:20.990Z,1.72
2018-01-18T11:29:48.975Z,1.64
2018-01-18T11:32:16.921Z,1.63
2018-01-18T11:34:44.853Z,1.66
2018-01-18T11:37:12.777Z,1.68
2018-01-18T11:39:40.690Z,1.71
2018-01-18T11:42:08.637Z,1.65
2018-01-18T11:44:36.564Z,1.69
2018-01-18T11:47:04.486Z,1.75
2018-01-18T11:49:32.453Z,1.87
2018-01-18T11:52:00.362Z,1.94
2018-01-18T11:54:28.808Z,1.92
2018-01-18T11:56:56.763Z,1.91
2018-01-18T11:59:24.760Z,1.87
2018-01-18T12:01:52.685Z,1.82
2018-01-18T12:04:20.655Z,1.87
2018-01-18T12:06:48.717Z,2.12
2018-01-18T12:09:16.695Z,1.87
2018-01-18T12:11:44.679Z,2.02
2018-01-18T12:14:12.818Z,1.93
2018-01-18T12:16:40.741Z,1.93
2018-01-18T12:19:08.686Z,1.91
2018-01-18T12:21:36.653Z,1.91
2018-01-18T12:24:04.648Z,1.79
2018-01-18T12:26:32.650Z,1.82
2018-01-18T12:29:00.576Z,1.84
2018-01-18T12:31:28.547Z,1.85
2018-01-18T12:33:56.481Z,1.75
2018-01-18T12:36:24.409Z,1.77
2018-01-18T12:38:52.398Z,2.03
2018-01-18T12:41:20.389Z,2.29
2018-01-18T12:43:48.430Z,2.14
2018-01-18T12:46:16.338Z,2.21
2018-01-18T12:48:44.335Z,1.93
2018-01-18T12:51:12.323Z,2.05
2018-01-18T12:53:40.310Z,2.26
2018-01-18T12:56:08.259Z,2.22
2018-01-18T12:58:36.186Z,2.24
2018-01-18T13:01:04.095Z,2.21
2018-01-18T13:03:32.045Z,2.44
2018-01-18T13:06:00.185Z,2.44
2018-01-18T13:08:28.402Z,2.43
2018-01-18T13:10:56.627Z,2.35
2018-01-18T13:13:24.708Z,2.49
2018-01-18T13:15:53.488Z,2.68
2018-01-18T13:18:21.534Z,2.64
2018-01-18T13:20:49.758Z,2.57
2018-01-18T13:23:18.224Z,2.47
2018-01-18T13:25:46.529Z,2.50
2018-01-18T13:28:14.487Z,2.56
2018-01-18T13:30:42.384Z,2.55
2018-01-18T13:33:10.367Z,2.68
2018-01-18T13:35:38.396Z,2.64
2018-01-18T13:38:06.398Z,2.55
2018-01-18T13:40:34.367Z,2.51
2018-01-18T13:43:02.362Z,2.42
2018-01-18T13:45:30.300Z,2.52
2018-01-18T13:47:58.242Z,2.37
2018-01-18T13:50:26.153Z,2.55
2018-01-18T13:52:54.079Z,2.50
2018-01-18T13:55:22.034Z,2.53
2018-01-18T13:57:49.953Z,2.81
2018-01-18T14:00:17.874Z,2.89
2018-01-18T14:02:45.880Z,2.87
2018-01-18T14:05:13.808Z,3.02
2018-01-18T14:07:41.862Z,2.61
2018-01-18T14:10:09.781Z,2.72
2018-01-18T14:12:37.681Z,2.83
2018-01-18T14:15:05.601Z,3.54
2018-01-18T14:17:33.539Z,3.00
2018-01-18T14:20:01.504Z,3.05
2018-01-18T14:22:29.425Z,3.05
2018-01-18T14:24:57.602Z,2.95
2018-01-18T14:27:25.536Z,3.14
2018-01-18T14:29:53.487Z,3.35
2018-01-18T14:32:21.448Z,3.09
2018-01-18T14:34:49.382Z,3.43
2018-01-18T14:37:17.320Z,3.54
2018-01-18T14:39:45.971Z,3.45
2018-01-18T14:42:13.979Z,3.31
2018-01-18T14:44:41.898Z,3.31
2018-01-18T14:47:09.836Z,2.98
2018-01-18T14:49:37.752Z,2.89
2018-01-18T14:52:05.719Z,2.74
2018-01-18T14:54:33.674Z,2.87
2018-01-18T14:57:01.651Z,2.88
2018-01-18T14:59:29.570Z,2.97
2018-01-18T15:01:57.602Z,2.87
2018-01-18T15:04:25.722Z,2.59
2018-01-18T15:06:53.850Z,2.64
2018-01-18T15:09:21.976Z,2.81
2018-01-18T15:11:50.009Z,3.00
2018-01-18T15:14:17.978Z,2.97
2018-01-18T15:16:46.031Z,3.12
2018-01-18T15:19:14.008Z,3.00
2018-01-18T15:21:42.228Z,2.75
2018-01-18T15:24:10.213Z,2.62
2018-01-18T15:26:38.828Z,2.68
2018-01-18T15:29:07.079Z,2.66
2018-01-18T15:31:36.063Z,2.78
2018-01-18T15:34:04.180Z,2.79
2018-01-18T15:36:33.475Z,2.90
2018-01-18T15:39:01.651Z,3.00
2018-01-18T15:41:30.023Z,3.13
2018-01-18T15:43:58.288Z,2.97
2018-01-18T15:46:27.373Z,2.75
2018-01-18T15:48:56.289Z,2.80
2018-01-18T15:51:24.629Z,2.72
2018-01-18T15:53:52.677Z,2.55
2018-01-18T15:56:20.683Z,2.55
2018-01-18T15:58:48.922Z,2.57
2018-01-18T16:01:17.050Z,2.51
2018-01-18T16:03:45.120Z,2.72
2018-01-18T16:06:13.205Z,2.60
2018-01-18T16:08:41.271Z,2.47
2018-01-18T16:11:09.397Z,2.66
2018-01-18T16:13:37.518Z,2.50
2018-01-18T16:16:06.102Z,2.49
2018-01-18T16:18:34.108Z,2.50
2018-01-18T16:21:03.283Z,3.00
2018-01-18T16:23:31.209Z,2.99
2018-01-18T16:25:59.155Z,3.05
2018-01-18T16:28:27.089Z,3.06
2018-01-18T16:30:55.043Z,2.97
2018-01-18T16:33:23.011Z,3.05
2018-01-18T16:35:50.946Z,2.98
2018-01-18T16:38:18.906Z,3.06
2018-01-18T16:40:46.848Z,3.01
2018-01-18T16:43:14.759Z,2.81
2018-01-18T16:45:42.716Z,2.84
2018-01-18T16:48:10.652Z,2.80
2018-01-18T16:50:38.580Z,2.84
2018-01-18T16:53:07.091Z,2.72
2018-01-18T16:55:35.074Z,2.71
2018-01-18T16:58:03.315Z,2.84
2018-01-18T17:00:31.385Z,2.73
2018-01-18T17:02:59.437Z,2.76
2018-01-18T17:05:27.333Z,2.81
2018-01-18T17:07:55.254Z,2.79
2018-01-18T17:10:23.167Z,2.71
2018-01-18T17:12:51.507Z,2.94
2018-01-18T17:15:19.504Z,2.74
2018-01-18T17:17:47.425Z,2.80
2018-01-18T17:20:18.111Z,2.86
2018-01-18T17:22:46.054Z,2.83
2018-01-18T17:25:14.101Z,2.91
2018-01-18T17:27:42.518Z,2.86
2018-01-18T17:30:10.437Z,2.86
2018-01-18T17:32:38.407Z,2.96
2018-01-18T17:35:06.617Z,2.97
2018-01-18T17:37:34.587Z,2.95
2018-01-18T17:40:02.513Z,3.03
2018-01-18T17:42:30.432Z,3.15
2018-01-18T17:44:58.365Z,2.95
2018-01-18T17:47:26.304Z,2.99
2018-01-18T17:49:54.262Z,3.16
2018-01-18T17:52:22.322Z,3.11
2018-01-18T17:54:50.266Z,3.16
2018-01-18T17:57:18.170Z,3.08
2018-01-18T17:59:46.109Z,3.08
2018-01-18T18:02:14.032Z,3.00
2018-01-18T18:04:42.030Z,2.75
2018-01-18T18:07:09.972Z,3.15
2018-01-18T18:09:37.881Z,3.33
2018-01-18T18:12:05.814Z,3.25
2018-01-18T18:14:33.826Z,3.44
2018-01-18T18:17:01.834Z,3.53
2018-01-18T18:19:29.771Z,3.56
2018-01-18T18:21:57.709Z,3.55
2018-01-18T18:24:25.709Z,3.45
2018-01-18T18:26:53.671Z,3.44
2018-01-18T18:29:21.615Z,3.56
2018-01-18T18:31:49.527Z,3.42
2018-01-18T18:34:18.260Z,3.12
2018-01-18T18:36:46.181Z,3.02
2018-01-18T18:39:14.176Z,3.01
2018-01-18T18:41:42.114Z,2.96
2018-01-18T18:44:10.018Z,3.02
2018-01-18T18:46:37.986Z,3.04
2018-01-18T18:49:05.915Z,3.06
2018-01-18T18:51:33.901Z,3.13
2018-01-18T18:54:01.805Z,3.10
2018-01-18T18:56:29.719Z,3.10
2018-01-18T18:58:57.650Z,3.25
2018-01-18T19:01:25.565Z,3.30
2018-01-18T19:03:53.581Z,3.23
2018-01-18T19:06:21.506Z,3.15
2018-01-18T19:08:49.438Z,3.09
2018-01-18T19:11:17.371Z,3.04
2018-01-18T19:13:45.285Z,3.03
2018-01-18T19:16:13.209Z,3.02
2018-01-18T19:18:41.113Z,3.06
2018-01-18T19:21:09.034Z,3.01
2018-01-18T19:23:36.994Z,3.15
2018-01-18T19:26:04.986Z,3.12
2018-01-18T19:28:33.267Z,3.03
2018-01-18T19:31:01.346Z,3.06
2018-01-18T19:33:29.793Z,3.03
2018-01-18T19:35:57.745Z,3.08
2018-01-18T19:38:25.714Z,3.09
2018-01-18T19:40:53.673Z,3.32
2018-01-18T19:43:22.501Z,3.18
2018-01-18T19:45:50.435Z,2.99
2018-01-18T19:48:18.381Z,3.06
2018-01-18T19:50:46.294Z,3.12
2018-01-18T19:53:14.238Z,3.11
2018-01-18T19:55:42.206Z,3.06
2018-01-18T19:58:10.121Z,3.14
2018-01-18T20:00:38.271Z,3.24
2018-01-18T20:03:06.153Z,3.16
2018-01-18T20:05:34.074Z,3.28
2018-01-18T20:08:02.011Z,3.11
2018-01-18T20:10:29.922Z,3.13
2018-01-18T20:12:57.832Z,3.12
2018-01-18T20:15:25.776Z,3.12
2018-01-18T20:17:54.181Z,3.17
2018-01-18T20:23:13.703Z,3.35
2018-01-18T20:25:42.124Z,3.52
2018-01-18T20:28:10.114Z,3.46
2018-01-18T20:30:37.974Z,3.41
2018-01-18T20:33:05.901Z,3.39
2018-01-18T20:35:33.945Z,3.34
2018-01-18T20:38:01.883Z,3.42
2018-01-18T20:40:29.853Z,3.32
2018-01-18T20:42:57.782Z,3.25
2018-01-18T20:45:25.721Z,3.34
2018-01-18T20:47:53.715Z,3.40
2018-01-18T20:50:21.714Z,3.39
2018-01-18T20:52:49.659Z,3.44
2018-01-18T20:55:17.636Z,3.35
2018-01-18T20:57:45.572Z,3.27
2018-01-18T21:00:13.852Z,3.30
2018-01-18T21:02:41.752Z,3.30
2018-01-18T21:05:09.851Z,3.35
2018-01-18T21:07:37.780Z,3.38
2018-01-18T21:10:05.718Z,3.54
2018-01-18T21:12:33.645Z,3.57
2018-01-18T21:15:01.580Z,3.63
2018-01-18T21:17:29.653Z,3.56
2018-01-18T21:19:58.227Z,3.49
2018-01-18T21:22:26.222Z,3.52
2018-01-18T21:24:54.274Z,3.57
2018-01-18T21:27:22.274Z,3.63
2018-01-18T21:29:50.388Z,3.47
2018-01-18T21:32:18.640Z,3.53
2018-01-18T21:34:46.841Z,3.49
2018-01-18T21:37:14.921Z,3.44
2018-01-18T21:39:43.086Z,3.49
2018-01-18T21:42:11.211Z,3.46
2018-01-18T21:44:39.328Z,3.54
2018-01-18T21:47:07.994Z,3.59
2018-01-18T21:49:35.997Z,3.48
2018-01-18T21:52:04.115Z,3.47
2018-01-18T21:54:32.867Z,3.41
2018-01-18T21:57:01.209Z,3.45
2018-01-18T21:59:32.090Z,3.52
2018-01-18T22:02:00.623Z,3.55
2018-01-18T22:04:28.974Z,3.60
2018-01-18T22:06:57.101Z,3.58
2018-01-18T22:09:25.198Z,3.55
2018-01-18T22:11:53.121Z,3.57
2018-01-18T22:14:21.131Z,3.52
2018-01-18T22:16:49.156Z,3.54
2018-01-18T22:19:17.101Z,3.56
2018-01-18T22:21:45.022Z,3.54
2018-01-18T22:24:12.957Z,3.54
2018-01-18T22:26:40.946Z,3.57
2018-01-18T22:29:08.878Z,3.65
2018-01-18T22:31:36.802Z,3.63
2018-01-18T22:34:04.764Z,3.68
2018-01-18T22:36:32.716Z,3.68
2018-01-18T22:39:00.759Z,3.60
2018-01-18T22:41:28.779Z,3.46
2018-01-18T22:43:56.706Z,3.49
2018-01-18T22:46:24.701Z,3.36
2018-01-18T22:48:52.954Z,3.34
2018-01-18T22:51:20.932Z,3.33
2018-01-18T22:53:48.866Z,3.45
2018-01-18T22:56:16.808Z,3.44
2018-01-18T22:58:44.758Z,3.32
2018-01-18T23:01:12.701Z,3.33
2018-01-18T23:03:40.694Z,3.48
2018-01-18T23:06:09.487Z,3.38
2018-01-18T23:08:38.601Z,3.40
2018-01-18T23:11:07.336Z,3.43
2018-01-18T23:13:35.482Z,3.28
2018-01-18T23:16:27.659Z,3.32
2018-01-18T23:19:06.558Z,3.36
2018-01-18T23:21:34.548Z,3.27
2018-01-18T23:24:02.547Z,3.34
2018-01-18T23:26:30.562Z,3.13
2018-01-18T23:28:58.628Z,3.33
2018-01-18T23:31:26.578Z,3.35
2018-01-18T23:33:54.493Z,3.24
2018-01-18T23:36:22.441Z,3.26
2018-01-18T23:38:50.391Z,3.10
2018-01-18T23:41:18.313Z,2.97
2018-01-18T23:43:46.246Z,3.05
2018-01-18T23:46:14.193Z,3.17
2018-01-18T23:48:42.159Z,3.10
2018-01-18T23:51:10.081Z,3.01
2018-01-18T23:53:38.041Z,2.99
2018-01-18T23:56:06.051Z,2.96
2018-01-18T23:58:33.998Z,2.93
